Time;durP1;ratioP1;P1;durP2;ratioP2;P2;SDS_P1;SDS_P2;PMS_P1;PMS_P2;Temp;Humidity;BMP_temperature;BMP_pressure;BME280_temperature;BME280_humidity;BME280_pressure;Samples;Min_cycle;Max_cycle;Signal;HPM_P1;HPM_P2
2022/04/26 03:37:06;;;;;;;19.75;6.05;;;;;;;;;;5027738;28;20032;-78
2022/04/26 03:39:35;;;;;;;10.98;5.65;;;;;;;;;;4992898;28;20484;-77
2022/04/26 03:42:04;;;;;;;15.20;5.43;;;;;;;;;;5028524;28;20041;-77
2022/04/26 03:44:31;;;;;;;12.73;5.30;;;;;;;;;;5031664;28;20104;-77
2022/04/26 03:46:57;;;;;;;19.52;5.88;;;;;;;;;;5031882;28;20068;-78
2022/04/26 03:49:24;;;;;;;19.30;5.30;;;;;;;;;;5032853;28;20030;-78
2022/04/26 03:51:53;;;;;;;18.20;5.03;;;;;;;;;;5035414;28;20029;-78
2022/04/26 03:54:20;;;;;;;16.67;5.25;;;;;;;;;;5031338;28;20037;-78
2022/04/26 03:56:46;;;;;;;19.88;5.40;;;;;;;;;;5032916;28;20034;-77
2022/04/26 03:59:12;;;;;;;12.85;5.25;;;;;;;;;;5030109;28;20044;-77
2022/04/26 04:01:38;;;;;;;17.63;5.13;;;;;;;;;;5022391;28;20033;-78
2022/04/26 04:04:04;;;;;;;13.02;5.07;;;;;;;;;;5026276;28;20121;-77
2022/04/26 04:06:30;;;;;;;18.20;5.63;;;;;;;;;;5026575;28;20041;-76
2022/04/26 04:08:56;;;;;;;13.85;4.82;;;;;;;;;;5030022;28;20036;-77
2022/04/26 04:11:22;;;;;;;17.20;5.68;;;;;;;;;;5028202;28;20033;-77
2022/04/26 04:13:48;;;;;;;22.58;6.53;;;;;;;;;;5030777;28;20091;-76
2022/04/26 04:16:14;;;;;;;16.67;5.28;;;;;;;;;;5025921;28;20041;-76
2022/04/26 04:21:25;;;;;;;18.63;4.75;;;;;;;;;;5024154;28;20393;-76
2022/04/26 04:23:51;;;;;;;15.07;4.68;;;;;;;;;;5028201;28;20045;-78
2022/04/26 04:26:17;;;;;;;14.57;5.07;;;;;;;;;;5027378;28;20406;-77
2022/04/26 04:28:43;;;;;;;16.05;5.03;;;;;;;;;;5024669;28;20138;-79
2022/04/26 04:31:12;;;;;;;11.80;4.90;;;;;;;;;;5029781;28;20041;-77
2022/04/26 04:33:39;;;;;;;11.82;4.78;;;;;;;;;;5029720;28;20092;-77
2022/04/26 04:36:05;;;;;;;17.10;4.72;;;;;;;;;;5029364;28;20034;-77
2022/04/26 04:38:31;;;;;;;13.60;3.70;;;;;;;;;;5047177;28;20029;-77
2022/04/26 04:40:57;;;;;;;13.93;5.00;;;;;;;;;;5024755;28;20052;-77
2022/04/26 04:43:23;;;;;;;14.40;4.95;;;;;;;;;;5031093;28;20041;-77
2022/04/26 04:45:49;;;;;;;18.33;4.95;;;;;;;;;;5028768;28;20064;-77
2022/04/26 04:48:16;;;;;;;27.75;5.60;;;;;;;;;;5049994;28;20452;-77
2022/04/26 04:50:42;;;;;;;17.35;4.80;;;;;;;;;;5024738;28;20037;-79
2022/04/26 04:53:08;;;;;;;13.05;4.82;;;;;;;;;;5030706;28;20037;-77
2022/04/26 04:55:35;;;;;;;13.02;4.78;;;;;;;;;;5028160;28;20461;-77
2022/04/26 04:58:01;;;;;;;14.30;4.47;;;;;;;;;;5030219;28;20029;-76
2022/04/26 05:00:27;;;;;;;24.40;5.72;;;;;;;;;;5027573;28;20075;-77
2022/04/26 05:02:53;;;;;;;7.55;3.88;;;;;;;;;;5031850;28;20128;-78
2022/04/26 05:05:19;;;;;;;23.30;4.75;;;;;;;;;;5025270;28;20171;-77
2022/04/26 05:07:45;;;;;;;20.48;5.60;;;;;;;;;;5029995;28;20495;-78
2022/04/26 05:10:14;;;;;;;18.80;5.82;;;;;;;;;;5025917;28;20125;-78
2022/04/26 05:12:40;;;;;;;11.57;4.47;;;;;;;;;;5013312;28;20041;-77
2022/04/26 05:15:06;;;;;;;15.63;5.18;;;;;;;;;;5016157;28;20034;-77
2022/04/26 05:17:32;;;;;;;14.48;4.65;;;;;;;;;;5019233;28;20034;-78
2022/04/26 05:19:59;;;;;;;14.02;4.10;;;;;;;;;;5031886;28;20499;-77
2022/04/26 05:22:25;;;;;;;13.10;4.40;;;;;;;;;;5026269;28;20101;-78
2022/04/26 05:24:54;;;;;;;19.05;4.95;;;;;;;;;;5039781;28;20520;-77
2022/04/26 05:27:27;;;;;;;12.82;4.70;;;;;;;;;;5007772;28;20060;-77
2022/04/26 05:29:57;;;;;;;16.90;4.63;;;;;;;;;;5032166;28;20039;-77
2022/04/26 05:32:24;;;;;;;16.40;4.88;;;;;;;;;;5034691;28;20462;-78
2022/04/26 05:34:55;;;;;;;8.80;3.30;;;;;;;;;;5034020;28;20037;-78
2022/04/26 05:37:21;;;;;;;21.08;6.13;;;;;;;;;;5041928;28;20384;-78
2022/04/26 05:39:47;;;;;;;16.15;3.85;;;;;;;;;;5028864;28;20109;-78
2022/04/26 05:42:13;;;;;;;18.13;5.05;;;;;;;;;;5031869;28;20440;-78
2022/04/26 05:44:39;;;;;;;12.68;4.22;;;;;;;;;;5028186;28;20041;-77
2022/04/26 05:47:08;;;;;;;14.10;5.00;;;;;;;;;;5033132;28;20029;-78
2022/04/26 05:49:34;;;;;;;15.90;4.25;;;;;;;;;;5030423;28;20037;-78
2022/04/26 05:52:01;;;;;;;15.75;5.60;;;;;;;;;;5033524;28;20061;-78
2022/04/26 05:54:27;;;;;;;10.23;4.00;;;;;;;;;;5018966;28;20080;-78
2022/04/26 05:56:53;;;;;;;18.20;4.35;;;;;;;;;;5021404;28;20040;-75
2022/04/26 05:59:19;;;;;;;14.63;4.22;;;;;;;;;;5023835;28;20038;-77
2022/04/26 06:01:46;;;;;;;21.73;4.93;;;;;;;;;;5015406;28;20053;-78
2022/04/26 06:04:12;;;;;;;12.00;4.38;;;;;;;;;;5025659;28;20800;-77
2022/04/26 06:06:38;;;;;;;12.07;4.70;;;;;;;;;;5028985;28;20437;-80
2022/04/26 06:09:04;;;;;;;14.90;4.78;;;;;;;;;;5017488;28;20029;-77
2022/04/26 06:11:30;;;;;;;12.35;4.50;;;;;;;;;;5030517;28;20042;-76
2022/04/26 06:13:56;;;;;;;43.63;19.27;;;;;;;;;;5018244;28;20061;-77
2022/04/26 06:16:22;;;;;;;17.90;5.95;;;;;;;;;;5041145;28;20083;-85
2022/04/26 06:18:48;;;;;;;11.95;4.03;;;;;;;;;;5027990;28;20104;-82
2022/04/26 06:21:15;;;;;;;7.82;3.85;;;;;;;;;;5028281;28;20049;-76
2022/04/26 06:23:41;;;;;;;11.48;3.85;;;;;;;;;;5031734;28;20029;-77
2022/04/26 06:26:07;;;;;;;12.18;3.42;;;;;;;;;;5032293;28;20037;-76
2022/04/26 06:28:33;;;;;;;11.13;3.22;;;;;;;;;;5027824;28;20520;-77
2022/04/26 06:31:00;;;;;;;13.02;3.90;;;;;;;;;;5026011;28;20049;-80
2022/04/26 06:33:26;;;;;;;20.02;3.55;;;;;;;;;;5026437;28;20481;-78
2022/04/26 06:35:52;;;;;;;11.82;3.83;;;;;;;;;;5032212;28;20037;-77
2022/04/26 06:38:19;;;;;;;11.30;3.72;;;;;;;;;;5023228;28;20022;-77
2022/04/26 06:40:46;;;;;;;10.20;5.22;;;;;;;;;;5028818;28;20404;-79
2022/04/26 06:43:12;;;;;;;20.88;8.45;;;;;;;;;;5027072;28;20080;-76
2022/04/26 06:45:38;;;;;;;15.00;4.35;;;;;;;;;;5032106;28;20068;-79
2022/04/26 06:48:11;;;;;;;7.53;3.17;;;;;;;;;;5027810;28;20029;-76
2022/04/26 06:50:39;;;;;;;13.38;4.00;;;;;;;;;;5035041;28;20025;-76
2022/04/26 06:53:05;;;;;;;9.50;3.17;;;;;;;;;;5028145;28;20432;-77
2022/04/26 06:55:32;;;;;;;8.50;3.40;;;;;;;;;;5013589;28;20091;-78
2022/04/26 06:57:58;;;;;;;10.43;3.75;;;;;;;;;;5026601;28;20575;-79
2022/04/26 07:00:26;;;;;;;14.85;5.20;;;;;;;;;;5029889;28;20104;-77
2022/04/26 07:02:53;;;;;;;10.90;3.80;;;;;;;;;;5030650;28;20025;-77
2022/04/26 07:05:19;;;;;;;7.90;4.13;;;;;;;;;;5033030;28;20536;-77
2022/04/26 07:07:48;;;;;;;7.88;3.33;;;;;;;;;;5009551;28;20033;-76
2022/04/26 07:10:14;;;;;;;9.52;4.10;;;;;;;;;;5032230;28;20531;-76
2022/04/26 07:12:40;;;;;;;9.13;3.65;;;;;;;;;;5030479;28;20128;-77
2022/04/26 07:15:07;;;;;;;6.88;2.78;;;;;;;;;;5026484;28;20041;-76
2022/04/26 07:17:33;;;;;;;12.02;4.30;;;;;;;;;;5031014;28;20424;-78
2022/04/26 07:20:00;;;;;;;12.63;3.72;;;;;;;;;;5017568;28;20026;-75
2022/04/26 07:22:26;;;;;;;6.38;3.25;;;;;;;;;;5021599;28;20036;-75
2022/04/26 07:24:52;;;;;;;9.98;3.20;;;;;;;;;;5026387;28;20072;-77
2022/04/26 07:27:20;;;;;;;11.52;2.78;;;;;;;;;;5029466;28;20057;-77
2022/04/26 07:29:49;;;;;;;10.65;3.00;;;;;;;;;;5029087;28;20037;-80
2022/04/26 07:32:15;;;;;;;8.93;2.85;;;;;;;;;;5028108;28;20034;-78
2022/04/26 07:34:41;;;;;;;9.07;2.85;;;;;;;;;;5010651;28;20041;-73
2022/04/26 07:37:07;;;;;;;7.65;2.30;;;;;;;;;;5007510;28;20035;-75
2022/04/26 07:39:34;;;;;;;8.32;3.00;;;;;;;;;;5022500;28;20040;-74
2022/04/26 07:42:01;;;;;;;7.95;2.10;;;;;;;;;;5028562;28;20057;-74
2022/04/26 07:44:27;;;;;;;7.53;2.42;;;;;;;;;;5029837;28;20036;-74
2022/04/26 07:46:54;;;;;;;7.63;2.67;;;;;;;;;;5029101;28;20045;-74
2022/04/26 07:49:23;;;;;;;10.68;2.83;;;;;;;;;;5029333;28;20141;-74
2022/04/26 07:51:49;;;;;;;6.18;2.63;;;;;;;;;;5029341;28;20037;-74
2022/04/26 07:54:16;;;;;;;7.63;2.83;;;;;;;;;;5010433;28;20053;-74
2022/04/26 07:56:42;;;;;;;11.13;2.97;;;;;;;;;;5029591;28;20175;-74
2022/04/26 07:59:08;;;;;;;6.00;2.53;;;;;;;;;;5023279;28;20049;-75
2022/04/26 08:01:35;;;;;;;7.47;2.22;;;;;;;;;;5006832;28;20548;-75
2022/04/26 08:04:01;;;;;;;6.50;2.22;;;;;;;;;;5023749;28;20025;-76
2022/04/26 08:06:28;;;;;;;9.45;2.38;;;;;;;;;;5029021;28;20478;-75
2022/04/26 08:08:54;;;;;;;6.80;3.08;;;;;;;;;;5029041;28;20084;-76
2022/04/26 08:11:21;;;;;;;8.95;2.13;;;;;;;;;;5010743;28;20040;-75
2022/04/26 08:13:47;;;;;;;9.73;2.53;;;;;;;;;;5023358;28;20381;-76
2022/04/26 08:16:13;;;;;;;5.32;2.03;;;;;;;;;;5026353;28;20084;-76
2022/04/26 08:18:39;;;;;;;8.15;2.25;;;;;;;;;;5029834;28;20572;-75
2022/04/26 08:21:08;;;;;;;6.43;2.05;;;;;;;;;;5028659;28;20030;-77
2022/04/26 08:29:07;;;;;;;10.27;2.80;;;;;;;;;;5026866;28;20059;-77
2022/04/26 08:31:35;;;;;;;3.40;1.98;;;;;;;;;;5024369;28;20073;-77
2022/04/26 08:34:01;;;;;;;13.65;2.22;;;;;;;;;;5023774;28;20033;-76
2022/04/26 08:36:27;;;;;;;7.07;1.90;;;;;;;;;;5029274;28;20038;-76
2022/04/26 08:38:53;;;;;;;8.63;1.90;;;;;;;;;;5024635;28;20096;-76
2022/04/26 08:41:19;;;;;;;9.07;2.00;;;;;;;;;;5029848;28;20038;-77
2022/04/26 08:43:45;;;;;;;8.27;1.88;;;;;;;;;;5029507;28;20042;-76
2022/04/26 08:46:11;;;;;;;7.60;2.03;;;;;;;;;;5028686;28;20092;-76
2022/04/26 08:51:22;;;;;;;7.85;1.88;;;;;;;;;;5028308;28;20103;-77
2022/04/26 08:53:48;;;;;;;10.38;2.30;;;;;;;;;;5014390;28;20026;-76
2022/04/26 08:56:16;;;;;;;6.60;2.03;;;;;;;;;;5033030;28;20041;-76
2022/04/26 08:58:42;;;;;;;3.55;1.90;;;;;;;;;;5030005;28;20112;-77
2022/04/26 09:01:08;;;;;;;11.63;2.63;;;;;;;;;;5033032;28;20041;-76
2022/04/26 09:03:35;;;;;;;5.18;2.08;;;;;;;;;;5033629;28;20119;-75
2022/04/26 09:06:04;;;;;;;3.33;1.92;;;;;;;;;;5031782;28;20245;-77
2022/04/26 09:08:31;;;;;;;6.88;2.08;;;;;;;;;;5032108;28;20124;-76
2022/04/26 09:10:57;;;;;;;6.28;2.15;;;;;;;;;;5028233;28;20088;-76
2022/04/26 09:13:24;;;;;;;4.20;1.92;;;;;;;;;;5030225;28;20116;-75
2022/04/26 09:15:56;;;;;;;12.30;6.22;;;;;;;;;;5024255;28;20133;-75
2022/04/26 09:18:26;;;;;;;5.20;2.10;;;;;;;;;;5021764;28;20037;-75
2022/04/26 09:20:57;;;;;;;7.10;1.73;;;;;;;;;;5030152;28;20028;-77
2022/04/26 09:23:25;;;;;;;9.68;2.63;;;14.90;99.90;;;;;;5032524;28;20079;-77
2022/04/26 09:26:14;;;;;;;5.22;2.30;;;;;;;;;;5029186;28;20482;-77
2022/04/26 09:28:42;;;;;;;16.73;1.98;;;;;;;;;;5007356;28;20049;-78
2022/04/26 09:31:22;;;;;;;6.70;1.50;;;;;;;;;;5002890;28;20038;-79
2022/04/26 09:33:49;;;;;;;6.72;2.00;;;;;;;;;;4995814;28;20080;-79
2022/04/26 09:36:17;;;;;;;6.15;1.98;;;;;;;;;;5011268;28;20034;-77
2022/04/26 09:38:59;;;;;;;10.35;1.50;;;;;;;;;;5007353;28;20398;-77
2022/04/26 09:41:26;;;;;;;6.90;1.80;;;;;;;;;;5011686;28;20167;-77
2022/04/26 09:44:10;;;;;;;5.75;1.83;;;;;;;;;;5010305;28;20085;-78
2022/04/26 09:46:49;;;;;;;3.92;1.48;;;;;;;;;;5011161;28;20449;-77
2022/04/26 09:49:19;;;;;;;7.57;1.90;;;;;;;;;;5028948;28;20057;-77
2022/04/26 09:51:47;;;;;;;2.55;1.38;;;;;;;;;;5009336;28;20033;-76
2022/04/26 09:54:13;;;;;;;7.35;2.03;;;;;;;;;;5011540;28;20422;-77
2022/04/26 09:56:42;;;;;;;7.18;1.70;;;;;;;;;;5005176;28;20466;-75
2022/04/26 09:59:08;;;;;;;6.38;1.60;;;;;;;;;;5012864;28;20055;-80
2022/04/26 10:01:40;;;;;;;5.25;1.80;;;;;;;;;;5008813;28;20062;-77
2022/04/26 10:04:12;;;;;;;4.82;1.63;;;16.80;99.90;;;;;;5017084;28;20036;-78
2022/04/26 10:06:39;;;;;;;10.65;2.15;;;;;;;;;;5021066;28;20508;-78
2022/04/26 10:09:06;;;;;;;3.25;1.55;;;;;;;;;;5014655;28;20030;-78
2022/04/26 10:11:33;;;;;;;6.22;2.13;;;;;;;;;;4992225;28;20038;-77
2022/04/26 10:14:01;;;;;;;6.28;1.88;;;18.00;97.60;;;;;;5015621;28;20026;-80
2022/04/26 10:16:28;;;;;;;7.45;2.65;;;;;;;;;;5009328;28;20390;-80
2022/04/26 10:19:12;;;;;;;3.50;1.55;;;;;;;;;;5012731;28;20079;-79
2022/04/26 10:21:38;;;;;;;5.03;1.88;;;;;;;;;;5016095;28;20026;-79
2022/04/26 10:24:20;;;;;;;5.85;1.88;;;;;;;;;;5012516;28;20092;-80
2022/04/26 10:26:47;;;;;;;5.20;1.80;;;;;;;;;;4988290;28;20042;-80
2022/04/26 10:29:14;;;;;;;5.28;1.90;;;;;;;;;;5013614;28;20505;-80
2022/04/26 10:31:42;;;;;;;8.07;1.60;;;;;;;;;;5011509;28;20454;-79
2022/04/26 10:34:27;;;;;;;4.25;1.65;;;;;;;;;;5012294;28;20026;-79
2022/04/26 10:36:56;;;;;;;5.13;2.10;;;;;;;;;;5011745;28;20378;-79
2022/04/26 10:39:22;;;;;;;6.35;1.88;;;;;;;;;;5013475;28;20512;-79
2022/04/26 10:41:48;;;;;;;5.40;1.77;;;;;;;;;;5012123;28;20053;-78
2022/04/26 10:44:17;;;;;;;4.82;1.92;;;;;;;;;;5017289;28;20029;-79
2022/04/26 10:46:44;;;;;;;22.50;5.13;;;;;;;;;;5010875;28;20096;-79
2022/04/26 10:49:25;;;;;;;13.52;4.53;;;;;;;;;;5012877;28;20034;-79
2022/04/26 10:51:51;;;;;;;6.15;1.80;;;;;;;;;;5009431;28;20434;-78
2022/04/26 10:54:45;;;;;;;3.70;1.52;;;17.20;95.80;;;;;;5012025;28;20018;-79
2022/04/26 10:57:11;;;;;;;5.30;1.58;;;;;;;;;;5009532;28;20038;-79
2022/04/26 10:59:40;;;;;;;14.55;8.27;;;;;;;;;;5004385;28;20466;-78
2022/04/26 11:02:10;;;;;;;13.48;5.07;;;15.90;99.50;;;;;;4991508;28;20096;-80
2022/04/26 11:04:36;;;;;;;6.03;2.03;;;;;;;;;;5008235;28;20038;-79
2022/04/26 11:07:13;;;;;;;4.03;1.52;;;;;;;;;;5006680;28;20441;-77
2022/04/26 11:09:55;;;;;;;4.97;1.95;;;16.80;98.40;;;;;;5010489;28;20033;-78
2022/04/26 11:12:22;;;;;;;4.13;1.50;;;;;;;;;;5028907;28;20474;-77
2022/04/26 11:14:49;;;;;;;4.45;1.70;;;;;;;;;;4990003;28;20030;-77
2022/04/26 11:17:16;;;;;;;5.28;1.90;;;15.90;99.60;;;;;;5013051;28;20036;-78
2022/04/26 11:19:50;;;;;;;4.05;1.38;;;;;;;;;;5008284;28;20116;-78
2022/04/26 11:22:16;;;;;;;5.65;1.77;;;;;;;;;;5009565;28;20429;-78
2022/04/26 11:30:31;;;;;;;3.08;1.60;;;15.50;99.60;;;;;;5030541;28;20060;-77
2022/04/26 11:33:02;;;;;;;7.03;2.35;;;;;;;;;;5029830;28;20033;-77
2022/04/26 11:35:29;;;;;;;3.92;1.40;;;;;;;;;;5030745;28;20043;-78
2022/04/26 11:37:56;;;;;;;5.63;1.85;;;15.80;98.70;;;;;;5032061;28;20067;-78
2022/04/26 11:40:23;;;;;;;2.08;1.30;;;;;;;;;;5020770;28;20069;-79
2022/04/26 11:42:50;;;;;;;8.65;2.22;;;;;;;;;;5031030;28;20523;-78
2022/04/26 11:45:16;;;;;;;3.30;1.55;;;;;;;;;;5030437;28;20402;-78
2022/04/26 11:47:48;;;;;;;5.45;1.60;;;;;;;;;;5030066;28;20034;-80
2022/04/26 11:50:17;;;;;;;4.83;1.77;;;15.40;98.00;;;;;;5031822;28;20029;-78
2022/04/26 11:52:44;;;;;;;3.92;1.30;;;;;;;;;;5030030;28;20605;-79
2022/04/26 11:55:20;;;;;;;3.25;1.35;;;;;;;;;;5029413;28;20053;-79
2022/04/26 11:57:47;;;;;;;5.30;1.70;;;;;;;;;;5030467;28;20099;-78
2022/04/26 12:00:13;;;;;;;5.43;1.60;;;;;;;;;;5031055;28;20036;-78
2022/04/26 12:02:40;;;;;;;5.97;1.70;;;;;;;;;;5013961;28;20116;-79
2022/04/26 12:05:08;;;;;;;4.22;1.65;;;;;;;;;;5022849;28;20037;-78
2022/04/26 12:07:34;;;;;;;4.03;1.50;;;;;;;;;;5017899;28;20125;-78
2022/04/26 12:10:00;;;;;;;4.07;1.50;;;;;;;;;;5031267;28;20469;-79
2022/04/26 12:12:27;;;;;;;11.25;1.77;;;;;;;;;;5031102;28;20030;-79
2022/04/26 12:14:53;;;;;;;4.40;1.65;;;15.60;98.90;;;;;;5013716;28;20370;-80
2022/04/26 12:17:27;;;;;;;2.97;1.50;;;;;;;;;;5035286;28;20048;-79
2022/04/26 12:19:53;;;;;;;6.57;1.77;;;;;;;;;;5046286;28;20032;-78
2022/04/26 12:22:19;;;;;;;3.22;1.65;;;;;;;;;;5016981;28;20041;-79
2022/04/26 12:24:46;;;;;;;5.45;1.52;;;;;;;;;;5027724;28;20084;-78
2022/04/26 12:27:13;;;;;;;5.20;1.75;;;;;;;;;;5030516;28;20036;-78
2022/04/26 12:29:41;;;;;;;4.40;1.60;;;;;;;;;;5026375;28;20050;-78
2022/04/26 12:32:08;;;;;;;3.25;2.00;;;;;;;;;;5012367;28;20046;-78
2022/04/26 12:34:35;;;;;;;5.85;1.63;;;;;;;;;;5031859;28;20037;-79
2022/04/26 12:37:15;;;;;;;5.22;1.60;;;;;;;;;;5031759;28;20481;-79
2022/04/26 12:39:41;;;;;;;3.58;1.33;;;;;;;;;;5014036;28;20115;-79
2022/04/26 12:42:12;;;;;;;4.00;1.60;;;;;;;;;;5031163;28;20025;-79
2022/04/26 12:44:48;;;;;;;2.58;1.42;;;;;;;;;;5031327;28;20064;-78
2022/04/26 12:52:54;;;;;;;8.52;1.70;;;;;;;;;;5024528;28;20041;-77
2022/04/26 12:55:28;;;;;;;4.38;1.70;;;;;;;;;;5013419;28;20470;-77
2022/04/26 12:57:55;;;;;;;3.42;1.60;;;16.00;97.50;;;;;;5039335;28;20021;-77
2022/04/26 13:00:22;;;;;;;2.38;1.35;;;;;;;;;;5026654;28;20033;-77
2022/04/26 13:02:52;;;;;;;3.25;1.70;;;;;;;;;;5031617;28;20022;-78
2022/04/26 13:05:19;;;;;;;4.57;1.85;;;;;;;;;;5021829;28;20473;-78
2022/04/26 13:07:48;;;;;;;5.10;1.65;;;;;;;;;;5002105;28;20130;-79
2022/04/26 13:10:15;;;;;;;7.53;2.67;;;;;;;;;;5025112;28;20037;-77
2022/04/26 13:12:41;;;;;;;4.88;2.03;;;;;;;;;;5000496;28;20053;-78
2022/04/26 13:15:08;;;;;;;8.40;2.40;;;;;;;;;;5021391;28;20025;-75
2022/04/26 13:17:37;;;;;;;8.23;2.08;;;15.50;97.70;;;;;;5018025;28;20053;-81
2022/04/26 13:20:08;;;;;;;7.05;3.20;;;;;;;;;;5024784;28;20048;-79
2022/04/26 13:22:35;;;;;;;5.18;1.55;;;;;;;;;;5014630;28;20069;-76
2022/04/26 13:25:03;;;;;;;4.18;1.98;;;;;;;;;;5020346;28;20028;-79
2022/04/26 13:27:29;;;;;;;4.20;2.13;;;;;;;;;;5024593;28;20069;-78
2022/04/26 13:29:55;;;;;;;7.30;1.92;;;;;;;;;;4985099;28;20517;-78
2022/04/26 13:32:21;;;;;;;5.55;1.67;;;;;;;;;;4998996;28;20057;-77
2022/04/26 13:34:48;;;;;;;4.32;2.10;;;;;;;;;;4996454;28;20052;-77
2022/04/26 13:37:14;;;;;;;3.08;1.27;;;;;;;;;;5006100;28;20033;-77
2022/04/26 13:39:43;;;;;;;5.25;1.80;;;;;;;;;;5000391;28;20041;-77
2022/04/26 13:42:10;;;;;;;5.25;1.88;;;;;;;;;;5000237;28;20038;-80
2022/04/26 13:44:36;;;;;;;3.90;1.63;;;;;;;;;;4998799;28;20033;-80
2022/04/26 13:47:04;;;;;;;4.82;2.30;;;;;;;;;;4984378;28;20034;-80
2022/04/26 13:49:31;;;;;;;4.10;1.60;;;;;;;;;;5007462;28;20544;-80
2022/04/26 13:51:58;;;;;;;7.32;2.15;;;;;;;;;;5009800;28;20032;-79
2022/04/26 13:54:27;;;;;;;4.68;2.00;;;;;;;;;;5011891;28;20025;-79
2022/04/26 13:56:53;;;;;;;5.68;1.80;;;;;;;;;;5007547;28;20068;-80
2022/04/26 13:59:19;;;;;;;6.38;2.00;;;;;;;;;;5009603;28;20045;-78
2022/04/26 14:01:45;;;;;;;5.57;2.15;;;;;;;;;;5008032;28;20038;-77
2022/04/26 14:04:11;;;;;;;6.97;1.67;;;;;;;;;;5008504;28;20053;-76
2022/04/26 14:06:37;;;;;;;5.65;2.08;;;;;;;;;;4990907;28;20052;-76
2022/04/26 14:09:03;;;;;;;4.97;1.88;;;;;;;;;;5006564;28;20033;-75
2022/04/26 14:11:29;;;;;;;3.38;1.67;;;;;;;;;;5009517;28;20054;-75
2022/04/26 14:22:09;;;;;;;5.13;1.90;;;;;;;;;;5011640;28;20048;-75
2022/04/26 14:24:35;;;;;;;6.68;2.15;;;;;;;;;;5012881;28;20026;-76
2022/04/26 14:27:01;;;;;;;5.90;1.98;;;;;;;;;;5016932;28;20065;-75
2022/04/26 14:29:28;;;;;;;4.10;1.65;;;;;;;;;;5028775;28;20088;-75
2022/04/26 14:31:54;;;;;;;4.57;1.75;;;;;;;;;;5013790;28;20037;-75
2022/04/26 14:34:19;;;;;;;5.15;1.73;;;;;;;;;;5032082;28;20079;-75
2022/04/26 14:36:46;;;;;;;4.20;2.20;;;;;;;;;;5014474;28;20469;-75
2022/04/26 14:39:12;;;;;;;7.15;2.10;;;;;;;;;;5032081;28;20064;-75
2022/04/26 14:41:40;;;;;;;5.28;2.30;;;;;;;;;;5030891;28;20037;-75
2022/04/26 14:44:06;;;;;;;4.95;1.80;;;;;;;;;;5013123;28;20022;-75
2022/04/26 14:46:33;;;;;;;4.35;1.63;;;;;;;;;;5022226;28;20499;-75
2022/04/26 14:48:59;;;;;;;4.38;1.63;;;;;;;;;;5031906;28;20030;-75
2022/04/26 14:51:25;;;;;;;6.53;1.40;;;;;;;;;;5030161;28;20096;-75
2022/04/26 14:53:51;;;;;;;4.75;1.95;;;;;;;;;;5013558;28;20042;-75
2022/04/26 14:56:17;;;;;;;5.22;1.80;;;;;;;;;;5018143;28;20393;-75
2022/04/26 14:58:43;;;;;;;5.18;1.98;;;;;;;;;;5031452;28;20038;-75
2022/04/26 15:01:10;;;;;;;5.55;1.92;;;;;;;;;;5031582;28;20116;-75
2022/04/26 15:03:36;;;;;;;5.30;2.28;;;;;;;;;;5030212;28;20025;-75
2022/04/26 15:06:02;;;;;;;5.78;2.00;;;;;;;;;;5032951;28;20029;-76
2022/04/26 15:11:13;;;;;;;6.03;2.78;;;;;;;;;;5031092;28;20067;-75
2022/04/26 15:16:39;;;;;;;3.17;1.80;;;;;;;;;;5031116;28;20056;-75
2022/04/26 15:19:06;;;;;;;6.80;2.40;;;;;;;;;;5022985;28;20044;-75
2022/04/26 15:21:31;;;;;;;4.35;1.40;;;;;;;;;;5025911;28;20052;-76
2022/04/26 15:23:58;;;;;;;6.88;1.92;;;;;;;;;;5012005;28;20030;-76
2022/04/26 15:26:27;;;;;;;5.88;1.92;;;;;;;;;;5019157;28;20055;-75
2022/04/26 15:28:53;;;;;;;5.32;1.88;;;;;;;;;;5031077;28;20401;-75
2022/04/26 15:31:19;;;;;;;5.22;1.80;;;;;;;;;;5029232;28;20830;-75
2022/04/26 15:33:49;;;;;;;5.22;1.67;;;;;;;;;;5031387;28;20033;-75
2022/04/26 15:36:16;;;;;;;4.20;1.75;;;15.00;98.70;;;;;;5026516;28;20049;-75
2022/04/26 15:38:43;;;;;;;4.22;1.60;;;;;;;;;;5031769;28;20075;-75
2022/04/26 15:41:09;;;;;;;5.57;1.70;;;;;;;;;;5030921;28;20029;-75
2022/04/26 15:43:36;;;;;;;6.03;1.92;;;;;;;;;;5029574;28;20132;-75
2022/04/26 15:46:09;;;;;;;5.47;1.92;;;;;;;;;;5030236;28;20474;-75
2022/04/26 15:48:38;;;;;;;3.72;2.03;;;;;;;;;;5031424;28;20079;-75
2022/04/26 15:51:05;;;;;;;4.57;1.80;;;;;;;;;;5032031;28;20057;-75
2022/04/26 15:53:31;;;;;;;5.90;2.10;;;;;;;;;;5030229;28;20037;-74
2022/04/26 15:55:57;;;;;;;9.10;1.92;;;;;;;;;;5029717;28;20053;-75
2022/04/26 15:58:23;;;;;;;5.70;1.85;;;;;;;;;;5028260;28;20044;-75
2022/04/26 16:00:51;;;;;;;5.78;2.38;;;;;;;;;;5018503;28;20083;-75
2022/04/26 16:03:17;;;;;;;4.93;1.88;;;;;;;;;;5031132;28;20462;-76
2022/04/26 16:05:44;;;;;;;3.70;1.85;;;;;;;;;;5011829;28;20132;-76
2022/04/26 16:08:10;;;;;;;3.10;1.38;;;;;;;;;;5044387;28;20052;-77
2022/04/26 16:21:36;;;;;;;5.63;1.80;;;;;;;;;;5025431;28;20044;-76
2022/04/26 16:24:03;;;;;;;3.78;1.60;;;;;;;;;;5033113;28;20032;-76
2022/04/26 16:26:30;;;;;;;14.77;8.63;;;;;;;;;;5011745;28;20045;-77
2022/04/26 16:28:56;;;;;;;7.28;3.20;;;;;;;;;;5024549;28;20046;-77
2022/04/26 16:31:30;;;;;;;8.93;1.80;;;;;;;;;;5025316;28;20057;-78
2022/04/26 16:33:57;;;;;;;5.18;1.70;;;;;;;;;;5003354;28;20037;-77
2022/04/26 16:36:25;;;;;;;4.57;1.73;;;;;;;;;;5013588;28;20030;-77
2022/04/26 16:38:51;;;;;;;4.97;1.60;;;;;;;;;;5029281;28;20464;-77
2022/04/26 16:41:17;;;;;;;5.28;1.73;;;;;;;;;;5007932;28;20034;-77
2022/04/26 16:43:43;;;;;;;4.13;1.35;;;;;;;;;;5030524;28;20087;-77
2022/04/26 16:46:11;;;;;;;9.90;2.13;;;;;;;;;;5030922;28;20037;-77
2022/04/26 16:48:37;;;;;;;8.35;1.90;;;;;;;;;;5030165;28;20462;-77
2022/04/26 16:51:03;;;;;;;5.25;1.80;;;;;;;;;;5012438;28;20030;-77
2022/04/26 16:53:29;;;;;;;4.28;1.83;;;;;;;;;;5020736;28;20042;-78
2022/04/26 16:55:56;;;;;;;6.30;1.60;;;13.30;99.90;;;;;;5016279;28;20041;-78
2022/04/26 16:58:22;;;;;;;2.85;1.48;;;;;;;;;;5022099;28;20064;-78
2022/04/26 17:00:48;;;;;;;4.05;1.65;;;;;;;;;;5025731;28;20038;-76
2022/04/26 17:03:15;;;;;;;7.75;1.50;;;;;;;;;;5025482;28;20104;-77
2022/04/26 17:05:45;;;;;;;10.23;3.53;;;;;;;;;;5029136;28;20036;-78
2022/04/26 17:08:15;;;;;;;6.38;1.55;;;;;;;;;;5022623;28;20432;-77
2022/04/26 17:10:41;;;;;;;5.45;1.45;;;;;;;;;;5031975;28;20037;-79
2022/04/26 17:13:07;;;;;;;5.50;1.50;;;;;;;;;;5025596;28;20083;-80
2022/04/26 17:15:33;;;;;;;7.35;1.65;;;;;;;;;;5034519;28;20087;-77
2022/04/26 17:17:59;;;;;;;8.57;2.50;;;;;;;;;;5030141;28;20038;-81
2022/04/26 17:20:27;;;;;;;6.72;1.70;;;;;;;;;;5040833;28;20029;-81
2022/04/26 17:22:53;;;;;;;7.97;1.63;;;;;;;;;;5040999;28;20103;-78
2022/04/26 17:25:20;;;;;;;7.22;2.58;;;;;;;;;;5007835;28;20499;-79
2022/04/26 17:27:52;;;;;;;4.00;1.88;;;;;;;;;;5028364;28;20128;-79
2022/04/26 17:30:18;;;;;;;7.13;2.05;;;;;;;;;;5014102;28;20033;-77
2022/04/26 17:32:44;;;;;;;6.32;1.90;;;;;;;;;;5030939;28;20468;-78
2022/04/26 17:35:11;;;;;;;8.57;1.83;;;12.40;99.90;;;;;;5034515;28;20021;-78
2022/04/26 17:37:39;;;;;;;6.22;2.05;;;;;;;;;;5030129;28;20037;-79
2022/04/26 17:40:05;;;;;;;8.20;2.55;;;;;;;;;;5021703;28;20058;-79
2022/04/26 17:42:34;;;;;;;6.18;2.45;;;;;;;;;;5018272;28;20496;-78
2022/04/26 17:45:04;;;;;;;4.40;1.83;;;;;;;;;;5034325;28;20087;-78
2022/04/26 17:47:31;;;;;;;7.85;2.10;;;;;;;;;;5030472;28;20029;-78
2022/04/26 17:50:00;;;;;;;5.60;1.65;;;;;;;;;;5034857;28;20038;-79
2022/04/26 17:52:26;;;;;;;4.22;1.88;;;;;;;;;;5035106;28;20416;-80
2022/04/26 17:57:38;;;;;;;4.75;1.92;;;;;;;;;;5031440;28;20040;-78
2022/04/26 18:00:08;;;;;;;7.13;2.05;;;;;;;;;;5034557;28;20084;-79
2022/04/26 18:02:35;;;;;;;3.95;1.90;;;;;;;;;;5018925;28;20039;-79
2022/04/26 18:05:01;;;;;;;4.47;1.55;;;;;;;;;;5037535;28;20544;-80
2022/04/26 18:07:27;;;;;;;6.00;2.85;;;;;;;;;;5034732;28;20045;-79
2022/04/26 18:09:53;;;;;;;11.90;2.22;;;;;;;;;;5024484;28;20041;-78
2022/04/26 18:12:19;;;;;;;10.30;3.00;;;;;;;;;;5032984;28;20026;-77
2022/04/26 18:14:46;;;;;;;7.90;2.03;;;;;;;;;;5032569;28;20034;-76
2022/04/26 18:17:12;;;;;;;9.05;2.30;;;;;;;;;;5043579;28;20030;-77
2022/04/26 18:19:38;;;;;;;4.15;1.58;;;;;;;;;;5031246;28;20087;-77
2022/04/26 18:22:04;;;;;;;4.53;1.83;;;;;;;;;;5032934;28;20037;-78
2022/04/26 18:24:30;;;;;;;5.30;1.63;;;;;;;;;;5021637;28;20045;-77
2022/04/26 18:26:57;;;;;;;5.95;1.95;;;;;;;;;;5020809;28;20042;-77
2022/04/26 18:29:23;;;;;;;10.13;2.42;;;;;;;;;;5023608;28;20505;-77
2022/04/26 18:31:50;;;;;;;9.93;2.45;;;;;;;;;;4996076;28;20034;-77
2022/04/26 18:34:19;;;;;;;6.95;2.00;;;;;;;;;;5020456;28;20041;-76
2022/04/26 18:36:45;;;;;;;5.13;1.27;;;;;;;;;;5013424;28;20029;-77
2022/04/26 18:39:11;;;;;;;7.97;2.55;;;;;;;;;;5008393;28;20505;-77
2022/04/26 18:41:37;;;;;;;6.13;1.85;;;;;;;;;;5009798;28;20041;-76
2022/04/26 18:44:03;;;;;;;15.27;3.67;;;;;;;;;;5008458;28;20034;-76
2022/04/26 18:46:29;;;;;;;9.10;2.45;;;;;;;;;;5000900;28;20048;-73
2022/04/26 18:48:55;;;;;;;4.15;1.67;;;;;;;;;;5003480;28;20072;-76
2022/04/26 18:51:21;;;;;;;6.07;1.35;;;;;;;;;;5000286;28;20053;-76
2022/04/26 18:53:47;;;;;;;5.93;1.80;;;;;;;;;;5011967;28;20018;-76
2022/04/26 18:56:15;;;;;;;10.05;1.90;;;;;;;;;;5010104;28;20048;-75
2022/04/26 18:58:41;;;;;;;5.25;1.30;;;;;;;;;;5009913;28;20037;-75
2022/04/26 19:01:07;;;;;;;8.90;1.95;;;;;;;;;;5010601;28;20042;-75